createdAt,value
2023-03-04T00:00:43.514Z,4.25
2023-03-04T00:03:15.741Z,4.17
2023-03-04T00:05:43.037Z,4.16
2023-03-04T00:08:10.168Z,4.23
2023-03-04T00:10:38.370Z,4.15
2023-03-04T00:13:06.914Z,4.08
2023-03-04T00:15:35.004Z,3.88
2023-03-04T00:18:03.265Z,3.92
2023-03-04T00:20:31.941Z,3.73
2023-03-04T00:23:00.134Z,4.08
2023-03-04T00:25:29.541Z,4.01
2023-03-04T00:27:59.375Z,3.97
2023-03-04T00:30:29.094Z,4.03
2023-03-04T00:32:57.771Z,4.12
2023-03-04T00:35:27.129Z,4.30
2023-03-04T00:37:56.669Z,4.30
2023-03-04T00:40:26.351Z,4.38
2023-03-04T00:42:55.801Z,4.39
2023-03-04T00:45:25.505Z,4.24
2023-03-04T00:47:54.971Z,4.13
2023-03-04T00:50:24.453Z,4.23
2023-03-04T00:52:53.558Z,3.93
2023-03-04T00:55:22.562Z,3.75
2023-03-04T00:57:49.639Z,3.94
2023-03-04T01:00:20.994Z,3.95
2023-03-04T01:02:48.325Z,4.12
2023-03-04T01:05:17.228Z,4.12
2023-03-04T01:07:47.485Z,3.92
2023-03-04T01:10:17.518Z,3.88
2023-03-04T01:12:45.481Z,3.87
2023-03-04T01:15:15.406Z,4.25
2023-03-04T01:17:44.486Z,4.51
2023-03-04T01:20:14.130Z,4.31
2023-03-04T01:22:43.941Z,4.25
2023-03-04T01:25:13.482Z,4.44
2023-03-04T01:27:43.179Z,3.90
2023-03-04T01:30:13.869Z,4.02
2023-03-04T01:32:43.820Z,4.12
2023-03-04T01:35:13.596Z,4.43
2023-03-04T01:37:41.931Z,3.94
2023-03-04T01:40:10.005Z,4.09
2023-03-04T01:42:42.144Z,4.10
2023-03-04T01:45:16.244Z,4.09
2023-03-04T01:47:49.535Z,4.34
2023-03-04T01:50:26.512Z,4.45
2023-03-04T01:52:54.744Z,4.25
2023-03-04T01:55:25.016Z,4.36
2023-03-04T01:57:54.511Z,4.39
2023-03-04T02:00:25.912Z,4.42
2023-03-04T02:02:55.720Z,4.32
2023-03-04T02:05:25.843Z,4.54
2023-03-04T02:07:54.111Z,4.74
2023-03-04T02:10:26.045Z,4.81
2023-03-04T02:12:55.355Z,4.56
2023-03-04T02:15:24.900Z,4.71
2023-03-04T02:17:52.858Z,4.71
2023-03-04T02:20:26.004Z,4.90
2023-03-04T02:23:08.262Z,4.87
2023-03-04T02:25:44.943Z,5.07
2023-03-04T02:28:15.293Z,4.72
2023-03-04T02:30:43.431Z,4.93
2023-03-04T02:33:21.338Z,4.79
2023-03-04T02:35:48.862Z,4.48
2023-03-04T02:38:21.261Z,4.96
2023-03-04T02:40:52.208Z,4.81
2023-03-04T02:43:19.987Z,4.92
2023-03-04T02:45:54.791Z,4.98
2023-03-04T02:48:26.378Z,5.16
2023-03-04T02:50:54.974Z,5.21
2023-03-04T02:53:23.193Z,5.17
2023-03-04T02:55:50.635Z,5.16
2023-03-04T02:58:23.140Z,5.16
2023-03-04T03:00:50.952Z,5.28
2023-03-04T03:03:19.514Z,5.24
2023-03-04T03:05:48.306Z,5.27
2023-03-04T03:08:16.392Z,5.37
2023-03-04T03:10:47.665Z,5.51
2023-03-04T03:13:17.121Z,5.38
2023-03-04T03:15:47.952Z,5.33
2023-03-04T03:18:18.811Z,5.36
2023-03-04T03:20:48.403Z,5.23
2023-03-04T03:23:18.932Z,5.51
2023-03-04T03:25:48.257Z,5.43
2023-03-04T03:28:18.261Z,5.55
2023-03-04T03:30:47.342Z,5.56
2023-03-04T03:33:17.034Z,5.49
2023-03-04T03:35:47.267Z,5.51
2023-03-04T03:38:18.198Z,5.68
2023-03-04T03:40:47.191Z,5.52
2023-03-04T03:43:15.687Z,5.50
2023-03-04T03:45:45.123Z,5.29
2023-03-04T03:48:15.774Z,5.43
2023-03-04T03:50:45.243Z,5.42
2023-03-04T03:53:14.666Z,5.33
2023-03-04T03:55:44.697Z,5.55
2023-03-04T03:58:12.392Z,5.57
2023-03-04T04:00:39.511Z,5.57
2023-03-04T04:03:07.230Z,5.57
2023-03-04T04:05:35.684Z,5.48
2023-03-04T04:08:04.237Z,5.67
2023-03-04T04:10:33.573Z,5.54
2023-03-04T04:13:02.946Z,5.53
2023-03-04T04:15:31.524Z,5.62
2023-03-04T04:17:58.534Z,5.65
2023-03-04T04:20:26.542Z,5.58
2023-03-04T04:22:54.220Z,5.50
2023-03-04T04:25:27.448Z,5.58
2023-03-04T04:27:55.295Z,5.65
2023-03-04T04:30:25.011Z,5.77
2023-03-04T04:32:54.648Z,5.75
2023-03-04T04:35:24.048Z,5.77
2023-03-04T04:37:53.520Z,5.74
2023-03-04T04:40:22.208Z,5.74
2023-03-04T04:42:50.227Z,5.85
2023-03-04T04:45:19.688Z,5.44
2023-03-04T04:47:48.883Z,5.65
2023-03-04T04:50:17.719Z,5.65
2023-03-04T04:52:48.533Z,5.74
2023-03-04T04:55:17.996Z,5.91
2023-03-04T04:57:47.054Z,5.81
2023-03-04T05:00:16.608Z,5.91
2023-03-04T05:02:45.971Z,5.62
2023-03-04T05:05:15.159Z,5.63
2023-03-04T05:07:45.118Z,5.74
2023-03-04T05:10:14.281Z,5.70
2023-03-04T05:12:41.501Z,5.68
2023-03-04T05:15:12.331Z,5.76
2023-03-04T05:17:40.211Z,6.04
2023-03-04T05:20:09.525Z,5.95
2023-03-04T05:22:37.334Z,5.87
2023-03-04T05:25:04.784Z,5.87
2023-03-04T05:27:33.112Z,5.69
2023-03-04T05:30:01.041Z,5.89
2023-03-04T05:32:28.853Z,5.82
2023-03-04T05:34:58.148Z,5.87
2023-03-04T05:37:27.807Z,5.70
2023-03-04T05:39:57.079Z,5.96
2023-03-04T05:42:26.696Z,5.72
2023-03-04T05:44:55.987Z,5.93
2023-03-04T05:47:24.115Z,6.00
2023-03-04T05:49:54.156Z,6.02
2023-03-04T05:52:27.320Z,6.00
2023-03-04T05:54:57.976Z,5.96
2023-03-04T05:57:25.006Z,5.96
2023-03-04T05:59:52.802Z,6.16
2023-03-04T06:02:20.605Z,6.03
2023-03-04T06:04:48.706Z,6.15
2023-03-04T06:07:19.636Z,6.11
2023-03-04T06:09:47.382Z,6.18
2023-03-04T06:12:19.548Z,6.13
2023-03-04T06:14:48.222Z,6.09
2023-03-04T06:17:17.613Z,6.22
2023-03-04T06:19:47.949Z,6.17
2023-03-04T06:22:18.024Z,5.99
2023-03-04T06:24:47.173Z,6.15
2023-03-04T06:27:17.426Z,6.15
2023-03-04T06:29:45.882Z,6.28
2023-03-04T06:32:14.608Z,6.22
2023-03-04T06:34:43.849Z,5.98
2023-03-04T06:37:13.302Z,6.20
2023-03-04T06:39:42.706Z,6.29
2023-03-04T06:42:12.098Z,6.25
2023-03-04T06:44:41.356Z,6.28
2023-03-04T06:47:11.623Z,6.21
2023-03-04T06:49:41.575Z,6.41
2023-03-04T06:52:12.851Z,6.39
2023-03-04T06:54:42.109Z,6.19
2023-03-04T06:57:10.722Z,6.08
2023-03-04T06:59:42.091Z,6.13
2023-03-04T07:02:13.273Z,6.37
2023-03-04T07:04:42.682Z,6.24
2023-03-04T07:07:13.797Z,6.28
2023-03-04T07:09:43.271Z,6.36
2023-03-04T07:12:12.754Z,6.35
2023-03-04T07:14:41.119Z,6.46
2023-03-04T07:17:11.849Z,6.40
2023-03-04T07:19:40.701Z,6.53
2023-03-04T07:22:09.783Z,6.25
2023-03-04T07:24:36.880Z,6.43
2023-03-04T07:27:04.598Z,6.57
2023-03-04T07:29:32.969Z,6.58
2023-03-04T07:32:00.213Z,6.51
2023-03-04T07:34:29.223Z,6.51
2023-03-04T07:36:59.297Z,6.44
2023-03-04T07:39:33.124Z,6.43
2023-03-04T07:42:01.294Z,6.29
2023-03-04T07:44:28.493Z,6.37
2023-03-04T07:46:55.648Z,6.44
2023-03-04T07:49:23.067Z,6.40
2023-03-04T07:51:50.959Z,6.47
2023-03-04T07:54:22.257Z,6.16
2023-03-04T07:56:49.873Z,6.56
2023-03-04T07:59:18.637Z,6.58
2023-03-04T08:01:46.709Z,6.61
2023-03-04T08:04:17.328Z,6.69
2023-03-04T08:06:44.530Z,6.86
2023-03-04T08:09:13.908Z,6.51
2023-03-04T08:11:44.573Z,6.82
2023-03-04T08:14:17.896Z,6.75
2023-03-04T08:16:47.917Z,6.91
2023-03-04T08:19:15.165Z,6.78
2023-03-04T08:21:51.131Z,6.78
2023-03-04T08:24:21.203Z,6.93
2023-03-04T08:26:51.741Z,6.83
2023-03-04T08:29:22.852Z,6.88
2023-03-04T08:31:53.441Z,6.72
2023-03-04T08:34:26.063Z,6.91
2023-03-04T08:36:55.226Z,7.00
2023-03-04T08:39:22.708Z,6.77
2023-03-04T08:41:52.855Z,6.87
2023-03-04T08:44:29.078Z,6.94
2023-03-04T08:47:01.957Z,6.73
2023-03-04T08:49:29.506Z,7.01
2023-03-04T08:52:00.135Z,7.10
2023-03-04T08:54:27.510Z,7.00
2023-03-04T08:56:54.570Z,7.06
2023-03-04T08:59:22.486Z,7.12
2023-03-04T09:01:51.919Z,7.17
2023-03-04T09:04:21.067Z,7.24
2023-03-04T09:06:51.782Z,7.39
2023-03-04T09:09:22.673Z,7.29
2023-03-04T09:11:54.175Z,7.40
2023-03-04T09:14:23.562Z,7.51
2023-03-04T09:16:52.473Z,7.49
2023-03-04T09:19:20.820Z,7.81
2023-03-04T09:21:48.413Z,7.68
2023-03-04T09:24:17.270Z,7.83
2023-03-04T09:26:46.738Z,7.96
2023-03-04T09:29:16.049Z,7.94
2023-03-04T09:31:43.183Z,7.90
2023-03-04T09:34:10.979Z,7.95
2023-03-04T09:36:41.785Z,8.28
2023-03-04T09:39:10.736Z,8.38
2023-03-04T09:41:44.354Z,8.40
2023-03-04T09:44:45.921Z,8.40
2023-03-04T09:47:17.054Z,8.40
2023-03-04T09:49:46.402Z,8.00
2023-03-04T09:52:45.462Z,8.05
2023-03-04T09:55:29.044Z,8.17
2023-03-04T09:58:27.117Z,8.47
2023-03-04T10:01:13.712Z,8.00
2023-03-04T10:03:49.106Z,7.86
2023-03-04T10:06:21.951Z,8.07
2023-03-04T10:09:11.578Z,7.88
2023-03-04T10:12:14.703Z,7.87
2023-03-04T10:14:52.025Z,7.65
2023-03-04T10:17:26.084Z,7.57
2023-03-04T10:20:00.754Z,7.79
2023-03-04T10:22:48.220Z,7.84
2023-03-04T10:25:20.626Z,8.16
2023-03-04T10:27:59.522Z,8.23
2023-03-04T10:30:41.531Z,8.01
2023-03-04T10:33:20.100Z,7.93
2023-03-04T10:36:20.948Z,8.29
2023-03-04T10:38:47.582Z,7.85
2023-03-04T10:41:20.302Z,7.72
2023-03-04T10:43:51.462Z,8.00
2023-03-04T10:46:21.039Z,8.22
2023-03-04T10:48:48.103Z,8.41
2023-03-04T10:51:23.039Z,8.48
2023-03-04T10:53:52.514Z,8.66
2023-03-04T10:56:45.750Z,8.68
2023-03-04T10:59:43.206Z,8.80
2023-03-04T11:02:29.637Z,8.84
2023-03-04T11:05:14.848Z,8.48
2023-03-04T11:07:59.988Z,8.93
2023-03-04T11:10:42.890Z,8.81
2023-03-04T11:13:12.282Z,8.80
2023-03-04T11:15:58.624Z,8.48
2023-03-04T11:18:42.137Z,8.64
2023-03-04T11:21:15.655Z,8.44
2023-03-04T11:23:50.462Z,8.47
2023-03-04T11:26:20.968Z,8.72
2023-03-04T11:29:20.767Z,8.66
2023-03-04T11:32:04.536Z,8.96
2023-03-04T11:35:01.715Z,8.06
2023-03-04T11:37:32.492Z,8.21
2023-03-04T11:40:12.035Z,8.40
2023-03-04T11:42:49.684Z,8.43
2023-03-04T11:45:33.605Z,8.65
2023-03-04T11:48:05.348Z,8.56
2023-03-04T11:50:39.258Z,8.62
2023-03-04T11:53:15.379Z,8.81
2023-03-04T11:55:59.386Z,8.56
2023-03-04T11:58:28.962Z,8.54
2023-03-04T12:01:01.194Z,8.13
2023-03-04T12:03:52.402Z,8.27
2023-03-04T12:06:34.052Z,8.00
2023-03-04T12:09:16.119Z,8.29
2023-03-04T12:12:14.227Z,8.43
2023-03-04T12:14:49.252Z,8.47
2023-03-04T12:17:54.970Z,8.27
2023-03-04T12:20:35.162Z,8.06
2023-03-04T12:23:15.207Z,8.38
2023-03-04T12:25:58.080Z,8.01
2023-03-04T12:28:38.957Z,8.06
2023-03-04T12:31:32.646Z,8.03
2023-03-04T12:34:23.274Z,8.43
2023-03-04T12:36:57.103Z,8.66
2023-03-04T12:39:30.392Z,8.36
2023-03-04T12:42:23.968Z,8.05
2023-03-04T12:45:18.162Z,8.32
2023-03-04T12:48:23.313Z,8.33
2023-03-04T12:51:06.017Z,8.29
2023-03-04T12:53:56.809Z,8.07
2023-03-04T12:56:26.846Z,8.05
2023-03-04T12:58:55.680Z,7.94
2023-03-04T13:01:30.692Z,7.93
2023-03-04T13:04:06.541Z,8.22
2023-03-04T13:06:55.896Z,8.35
2023-03-04T13:09:29.574Z,7.83
2023-03-04T13:12:22.012Z,7.91
2023-03-04T13:15:08.109Z,8.05
2023-03-04T13:17:43.254Z,7.57
2023-03-04T13:20:35.885Z,7.69
2023-03-04T13:23:15.084Z,7.82
2023-03-04T13:25:47.991Z,7.91
2023-03-04T13:28:20.875Z,8.12
2023-03-04T13:30:59.897Z,8.24
2023-03-04T13:33:27.470Z,8.40
2023-03-04T13:35:55.050Z,7.97
2023-03-04T13:38:33.802Z,8.11
2023-03-04T13:41:17.841Z,8.09
2023-03-04T13:43:46.371Z,8.15
2023-03-04T13:46:20.756Z,8.22
2023-03-04T13:48:51.446Z,8.26
2023-03-04T13:51:50.768Z,8.22
2023-03-04T13:54:31.098Z,8.01
2023-03-04T13:57:01.546Z,8.30
2023-03-04T13:59:47.942Z,8.23
2023-03-04T14:02:22.213Z,8.50
2023-03-04T14:04:58.465Z,8.37
2023-03-04T14:07:31.260Z,8.44
2023-03-04T14:10:08.033Z,8.43
2023-03-04T14:12:38.044Z,8.11
2023-03-04T14:15:18.466Z,8.16
2023-03-04T14:17:49.824Z,8.12
2023-03-04T14:20:28.264Z,7.99
2023-03-04T14:23:04.249Z,7.79
2023-03-04T14:25:37.056Z,7.47
2023-03-04T14:28:12.048Z,7.74
2023-03-04T14:30:44.263Z,7.75
2023-03-04T14:33:17.682Z,7.57
2023-03-04T14:35:56.368Z,7.82
2023-03-04T14:38:37.293Z,8.04
2023-03-04T14:41:10.750Z,8.34
2023-03-04T14:43:44.092Z,7.94
2023-03-04T14:46:13.832Z,8.19
2023-03-04T14:48:46.419Z,8.17
2023-03-04T14:51:45.189Z,8.12
2023-03-04T14:54:37.154Z,7.98
2023-03-04T14:57:21.171Z,8.11
2023-03-04T14:59:49.812Z,7.68
2023-03-04T15:02:18.871Z,7.79
2023-03-04T15:04:51.454Z,7.59
2023-03-04T15:07:22.831Z,7.52
2023-03-04T15:09:54.101Z,7.85
2023-03-04T15:12:27.906Z,8.07
2023-03-04T15:15:01.260Z,7.86
2023-03-04T15:17:41.406Z,7.80
2023-03-04T15:20:09.564Z,7.27
2023-03-04T15:22:57.568Z,7.59
2023-03-04T15:25:24.595Z,7.75
2023-03-04T15:27:52.096Z,7.50
2023-03-04T15:30:24.355Z,7.32
2023-03-04T15:32:52.553Z,7.63
2023-03-04T15:35:20.726Z,7.50
2023-03-04T15:37:51.104Z,7.58
2023-03-04T15:40:33.535Z,7.57
2023-03-04T15:43:04.381Z,7.29
2023-03-04T15:45:38.134Z,7.40
2023-03-04T15:48:10.085Z,7.55
2023-03-04T15:50:42.703Z,7.64
2023-03-04T15:53:33.528Z,7.70
2023-03-04T15:56:07.106Z,7.29
2023-03-04T15:58:35.398Z,7.59
2023-03-04T16:01:04.140Z,7.65
2023-03-04T16:03:32.078Z,7.75
2023-03-04T16:05:58.998Z,7.41
2023-03-04T16:08:27.065Z,7.61
2023-03-04T16:10:55.242Z,7.47
2023-03-04T16:13:24.539Z,7.18
2023-03-04T16:15:53.394Z,7.34
2023-03-04T16:18:20.961Z,7.01
2023-03-04T16:20:49.737Z,7.20
2023-03-04T16:23:24.692Z,7.22
2023-03-04T16:25:56.394Z,6.99
2023-03-04T16:28:23.300Z,6.55
2023-03-04T16:30:50.781Z,6.92
2023-03-04T16:33:18.045Z,6.82
2023-03-04T16:35:46.431Z,7.05
2023-03-04T16:38:26.302Z,7.24
2023-03-04T16:40:53.483Z,6.96
2023-03-04T16:43:23.728Z,7.01
2023-03-04T16:45:50.509Z,7.16
2023-03-04T16:48:18.251Z,7.35
2023-03-04T16:50:47.290Z,7.10
2023-03-04T16:53:36.426Z,7.16
2023-03-04T16:56:11.908Z,7.04
2023-03-04T16:58:39.883Z,6.45
2023-03-04T17:01:07.945Z,6.82
2023-03-04T17:03:36.332Z,6.91
2023-03-04T17:06:03.854Z,7.00
2023-03-04T17:08:30.745Z,6.93
2023-03-04T17:10:58.410Z,6.98
2023-03-04T17:13:26.410Z,6.61
2023-03-04T17:15:54.226Z,6.95
2023-03-04T17:18:22.234Z,7.07
2023-03-04T17:20:49.976Z,7.11
2023-03-04T17:23:17.190Z,7.09
2023-03-04T17:25:44.569Z,7.12
2023-03-04T17:28:12.494Z,7.13
2023-03-04T17:30:40.107Z,7.13
2023-03-04T17:33:08.061Z,7.04
2023-03-04T17:35:35.597Z,7.05
2023-03-04T17:38:03.777Z,7.13
2023-03-04T17:40:31.541Z,7.05
2023-03-04T17:42:59.279Z,6.66
2023-03-04T17:45:26.494Z,6.83
2023-03-04T17:47:54.513Z,6.85
2023-03-04T17:50:24.848Z,7.04
2023-03-04T17:52:54.980Z,7.00
2023-03-04T17:55:22.161Z,7.04
2023-03-04T17:57:49.436Z,6.92
2023-03-04T18:00:18.936Z,7.05
2023-03-04T18:02:46.338Z,6.84
2023-03-04T18:05:14.303Z,6.85
2023-03-04T18:07:44.412Z,6.83
2023-03-04T18:10:12.726Z,6.15
2023-03-04T18:12:42.690Z,6.57
2023-03-04T18:15:10.505Z,6.78
2023-03-04T18:17:38.535Z,6.85
2023-03-04T18:20:07.210Z,6.85
2023-03-04T18:22:35.062Z,6.83
2023-03-04T18:25:02.819Z,6.92
2023-03-04T18:27:30.010Z,6.94
2023-03-04T18:29:59.372Z,6.86
2023-03-04T18:32:26.658Z,6.45
2023-03-04T18:34:53.656Z,6.73
2023-03-04T18:37:21.745Z,6.78
2023-03-04T18:39:49.694Z,6.84
2023-03-04T18:42:17.792Z,6.95
2023-03-04T18:44:46.112Z,6.71
2023-03-04T18:47:16.195Z,6.80
2023-03-04T18:49:44.902Z,6.84
2023-03-04T18:52:12.858Z,6.84
2023-03-04T18:54:40.357Z,6.85
2023-03-04T18:57:10.294Z,6.85
2023-03-04T18:59:43.785Z,6.90
2023-03-04T19:02:24.795Z,6.91
2023-03-04T19:04:53.823Z,6.93
2023-03-04T19:07:20.619Z,6.95
2023-03-04T19:09:47.344Z,6.81
2023-03-04T19:12:14.846Z,6.93
2023-03-04T19:14:42.945Z,6.79
2023-03-04T19:17:10.767Z,6.81
2023-03-04T19:19:38.795Z,6.76
2023-03-04T19:22:07.349Z,6.68
2023-03-04T19:24:35.306Z,6.82
2023-03-04T19:27:06.146Z,6.80
2023-03-04T19:29:34.917Z,6.82
2023-03-04T19:32:02.797Z,6.71
2023-03-04T19:34:31.200Z,6.83
2023-03-04T19:36:59.297Z,6.75
2023-03-04T19:39:28.432Z,6.65
2023-03-04T19:41:56.545Z,6.71
2023-03-04T19:44:24.745Z,6.68
2023-03-04T19:46:52.680Z,6.69
2023-03-04T19:49:25.344Z,6.52
2023-03-04T19:51:57.849Z,6.67
2023-03-04T19:54:34.431Z,6.53
2023-03-04T19:57:03.009Z,6.64
2023-03-04T19:59:30.710Z,6.42
2023-03-04T20:02:07.493Z,6.46
2023-03-04T20:04:36.959Z,6.62
2023-03-04T20:07:08.196Z,6.41
2023-03-04T20:09:38.261Z,6.37
2023-03-04T20:12:05.430Z,5.95
2023-03-04T20:14:36.167Z,6.08
2023-03-04T20:17:04.867Z,6.32
2023-03-04T20:19:33.812Z,6.38
2023-03-04T20:22:01.859Z,6.34
2023-03-04T20:24:29.634Z,6.20
2023-03-04T20:26:58.105Z,6.30
2023-03-04T20:29:28.970Z,6.34
2023-03-04T20:31:56.000Z,6.43
2023-03-04T20:34:23.143Z,6.10
2023-03-04T20:36:53.620Z,6.31
2023-03-04T20:39:29.299Z,6.35
2023-03-04T20:41:59.040Z,6.27
2023-03-04T20:44:27.267Z,6.37
2023-03-04T20:46:55.541Z,6.33
2023-03-04T20:49:25.968Z,6.17
2023-03-04T20:51:56.496Z,6.33
2023-03-04T20:54:23.901Z,6.21
2023-03-04T20:56:51.294Z,6.15
2023-03-04T20:59:20.332Z,6.04
2023-03-04T21:01:50.317Z,6.17
2023-03-04T21:04:25.899Z,6.16
2023-03-04T21:06:54.959Z,6.22
2023-03-04T21:09:23.423Z,6.21
2023-03-04T21:11:51.838Z,5.72
2023-03-04T21:14:19.944Z,6.07
2023-03-04T21:16:50.435Z,6.14
2023-03-04T21:19:29.382Z,6.23
2023-03-04T21:21:58.712Z,6.09
2023-03-04T21:24:28.409Z,6.15
2023-03-04T21:26:59.463Z,6.12
2023-03-04T21:29:29.039Z,6.11
2023-03-04T21:32:04.726Z,6.17
2023-03-04T21:34:41.990Z,5.92
2023-03-04T21:37:10.172Z,6.09
2023-03-04T21:39:38.098Z,6.24
2023-03-04T21:42:06.003Z,6.20
2023-03-04T21:44:48.513Z,5.86
2023-03-04T21:47:17.205Z,6.00
2023-03-04T21:49:45.081Z,5.88
2023-03-04T21:52:13.256Z,6.11
2023-03-04T21:54:41.932Z,5.92
2023-03-04T21:57:11.330Z,5.69
2023-03-04T21:59:39.230Z,5.91
2023-03-04T22:02:07.501Z,6.05
2023-03-04T22:04:36.149Z,6.10
2023-03-04T22:07:04.182Z,6.14
2023-03-04T22:09:32.595Z,5.91
2023-03-04T22:11:59.920Z,5.82
2023-03-04T22:14:29.826Z,6.06
2023-03-04T22:16:57.998Z,6.04
2023-03-04T22:19:28.259Z,6.10
2023-03-04T22:21:56.001Z,6.10
2023-03-04T22:24:23.986Z,6.14
2023-03-04T22:26:51.915Z,6.22
2023-03-04T22:29:19.832Z,6.17
2023-03-04T22:31:47.971Z,6.17
2023-03-04T22:34:17.188Z,6.09
2023-03-04T22:36:46.018Z,6.17
2023-03-04T22:39:16.309Z,5.86
2023-03-04T22:41:43.341Z,5.75
2023-03-04T22:44:10.781Z,5.81
2023-03-04T22:46:39.857Z,5.88
2023-03-04T22:49:10.362Z,5.91
2023-03-04T22:51:42.512Z,6.01
2023-03-04T22:54:20.001Z,5.95
2023-03-04T22:56:50.843Z,6.05
2023-03-04T22:59:18.071Z,6.06
2023-03-04T23:01:45.795Z,5.98
2023-03-04T23:04:13.099Z,5.87
2023-03-04T23:06:41.417Z,6.03
2023-03-04T23:09:09.266Z,5.89
2023-03-04T23:11:37.344Z,6.05
2023-03-04T23:14:07.574Z,5.85
2023-03-04T23:16:42.754Z,5.69
2023-03-04T23:19:15.669Z,5.81
2023-03-04T23:21:44.797Z,5.89
2023-03-04T23:24:12.863Z,5.80
2023-03-04T23:26:42.114Z,5.76
2023-03-04T23:29:12.462Z,5.80
2023-03-04T23:31:39.491Z,5.89
2023-03-04T23:34:07.265Z,5.60
2023-03-04T23:36:38.997Z,5.61
2023-03-04T23:39:07.923Z,5.60
2023-03-04T23:41:35.953Z,5.56
2023-03-04T23:44:05.133Z,5.55
2023-03-04T23:46:33.215Z,5.37
2023-03-04T23:49:00.969Z,5.29
2023-03-04T23:51:29.821Z,5.17
2023-03-04T23:53:57.686Z,5.38
2023-03-04T23:56:29.075Z,5.22
2023-03-04T23:58:58.095Z,5.11
